createdAt,value
2023-04-26T00:02:18.035Z,101105.69
2023-04-26T00:04:46.402Z,101098.88
2023-04-26T00:07:15.887Z,101098.97
2023-04-26T00:09:44.634Z,101100.75
2023-04-26T00:12:12.947Z,101092.19
2023-04-26T00:14:40.816Z,101093.91
2023-04-26T00:17:08.840Z,101096.50
2023-04-26T00:19:36.991Z,101102.50
2023-04-26T00:22:05.547Z,101098.25
2023-04-26T00:24:34.865Z,101101.72
2023-04-26T00:27:08.632Z,101094.91
2023-04-26T00:29:36.383Z,101092.34
2023-04-26T00:32:04.625Z,101095.78
2023-04-26T00:34:36.573Z,101096.63
2023-04-26T00:37:05.330Z,101092.34
2023-04-26T00:39:34.437Z,101094.06
2023-04-26T00:42:02.200Z,101090.63
2023-04-26T00:44:29.936Z,101084.66
2023-04-26T00:46:57.746Z,101085.53
2023-04-26T00:49:26.566Z,101088.13
2023-04-26T00:51:54.991Z,101081.31
2023-04-26T00:54:22.949Z,101079.66
2023-04-26T00:56:53.314Z,101077.13
2023-04-26T00:59:21.566Z,101084.84
2023-04-26T01:01:49.483Z,101074.63
2023-04-26T01:04:18.090Z,101077.22
2023-04-26T01:06:46.623Z,101081.50
2023-04-26T01:09:15.699Z,101084.09
2023-04-26T01:11:45.081Z,101086.66
2023-04-26T01:14:15.923Z,101089.25
2023-04-26T01:16:47.019Z,101096.16
2023-04-26T01:19:15.427Z,101096.16
2023-04-26T01:21:43.720Z,101091.06
2023-04-26T01:24:13.803Z,101085.13
2023-04-26T01:26:45.665Z,101093.72
2023-04-26T01:29:18.404Z,101098.03
2023-04-26T01:31:46.838Z,101101.41
2023-04-26T01:34:14.935Z,101097.97
2023-04-26T01:36:42.806Z,101102.22
2023-04-26T01:39:12.008Z,101092.78
2023-04-26T01:41:39.752Z,101091.06
2023-04-26T01:44:07.653Z,101089.31
2023-04-26T01:46:35.526Z,101097.84
2023-04-26T01:49:03.353Z,101094.41
2023-04-26T01:51:31.324Z,101105.50
2023-04-26T01:53:59.236Z,101100.41
2023-04-26T01:56:28.354Z,101102.13
2023-04-26T01:58:57.411Z,101091.06
2023-04-26T02:01:25.572Z,101102.19
2023-04-26T02:03:53.433Z,101097.97
2023-04-26T02:06:21.428Z,101102.22
2023-04-26T02:08:49.459Z,101106.53
2023-04-26T02:11:17.435Z,101103.94
2023-04-26T02:13:46.589Z,101105.69
2023-04-26T02:16:16.184Z,101103.97
2023-04-26T02:18:44.471Z,101105.69
2023-04-26T02:21:12.466Z,101095.44
2023-04-26T02:23:40.652Z,101095.47
2023-04-26T02:26:08.419Z,101108.31
2023-04-26T02:28:36.789Z,101101.50
2023-04-26T02:31:06.258Z,101102.41
2023-04-26T02:33:34.250Z,101101.53
2023-04-26T02:36:04.042Z,101104.97
2023-04-26T02:38:31.869Z,101099.84
2023-04-26T02:41:00.475Z,101102.44
2023-04-26T02:43:28.494Z,101097.34
2023-04-26T02:45:58.687Z,101095.63
2023-04-26T02:48:27.841Z,101095.66
2023-04-26T02:50:55.640Z,101106.75
2023-04-26T02:53:23.394Z,101099.13
2023-04-26T02:55:51.408Z,101097.38
2023-04-26T02:58:19.317Z,101104.19
2023-04-26T03:00:48.358Z,101093.97
2023-04-26T03:03:17.307Z,101092.25
2023-04-26T03:05:46.597Z,101093.06
2023-04-26T03:08:14.328Z,101090.50
2023-04-26T03:10:42.132Z,101094.78
2023-04-26T03:13:09.860Z,101094.75
2023-04-26T03:15:37.637Z,101087.97
2023-04-26T03:18:05.727Z,101096.50
2023-04-26T03:20:33.818Z,101092.28
2023-04-26T03:23:03.013Z,101088.03
2023-04-26T03:25:30.979Z,101095.72
2023-04-26T03:27:58.727Z,101082.06
2023-04-26T03:30:26.861Z,101083.78
2023-04-26T03:32:54.819Z,101086.31
2023-04-26T03:35:22.721Z,101083.75
2023-04-26T03:37:51.819Z,101082.88
2023-04-26T03:40:22.515Z,101080.34
2023-04-26T03:42:50.419Z,101079.47
2023-04-26T03:45:18.396Z,101082.03
2023-04-26T03:47:46.607Z,101076.03
2023-04-26T03:50:14.398Z,101073.47
2023-04-26T03:52:42.166Z,101074.34
2023-04-26T03:55:11.832Z,101067.50
2023-04-26T03:57:41.084Z,101076.03
2023-04-26T04:00:13.478Z,101075.19
2023-04-26T04:02:41.358Z,101073.47
2023-04-26T04:05:10.306Z,101074.34
2023-04-26T04:07:38.100Z,101078.59
2023-04-26T04:10:07.388Z,101072.63
2023-04-26T04:12:34.980Z,101076.06
2023-04-26T04:15:04.569Z,101078.59
2023-04-26T04:17:32.350Z,101071.78
2023-04-26T04:20:00.129Z,101069.22
2023-04-26T04:22:27.920Z,101075.19
2023-04-26T04:24:55.917Z,101072.63
2023-04-26T04:27:23.688Z,101077.78
2023-04-26T04:29:51.470Z,101078.59
2023-04-26T04:32:20.978Z,101084.56
2023-04-26T04:34:49.656Z,101076.03
2023-04-26T04:37:18.197Z,101087.09
2023-04-26T04:39:46.225Z,101090.53
2023-04-26T04:42:14.084Z,101080.28
2023-04-26T04:44:43.062Z,101094.75
2023-04-26T04:47:10.869Z,101088.78
2023-04-26T04:49:40.356Z,101088.78
2023-04-26T04:52:08.174Z,101092.19
2023-04-26T04:54:36.132Z,101101.53
2023-04-26T04:57:04.413Z,101100.69
2023-04-26T04:59:33.313Z,101104.91
2023-04-26T05:02:01.609Z,101099.75
2023-04-26T05:04:29.681Z,101103.94
2023-04-26T05:06:58.975Z,101097.91
2023-04-26T05:09:26.848Z,101108.97
2023-04-26T05:11:54.747Z,101106.41
2023-04-26T05:14:22.495Z,101110.69
2023-04-26T05:16:50.373Z,101113.19
2023-04-26T05:19:18.203Z,101113.16
2023-04-26T05:21:46.003Z,101113.97
2023-04-26T05:24:15.084Z,101120.72
2023-04-26T05:26:42.946Z,101116.38
2023-04-26T05:29:10.678Z,101122.25
2023-04-26T05:31:38.455Z,101112.75
2023-04-26T05:34:06.375Z,101117.75
2023-04-26T05:36:34.147Z,101121.94
2023-04-26T05:39:01.913Z,101120.13
2023-04-26T05:41:31.000Z,101120.03
2023-04-26T05:43:58.799Z,101125.94
2023-04-26T05:46:26.944Z,101124.13
2023-04-26T05:48:54.800Z,101127.41
2023-04-26T05:51:22.629Z,101122.97
2023-04-26T05:53:51.144Z,101131.41
2023-04-26T05:56:19.100Z,101127.88
2023-04-26T05:58:49.138Z,101126.00
2023-04-26T06:01:16.963Z,101131.88
2023-04-26T06:03:45.939Z,101136.00
2023-04-26T06:06:15.353Z,101129.84
2023-04-26T06:08:44.055Z,101134.03
2023-04-26T06:11:11.787Z,101134.69
2023-04-26T06:13:39.625Z,101143.09
2023-04-26T06:16:09.174Z,101134.28
2023-04-26T06:18:37.058Z,101134.03
2023-04-26T06:21:05.212Z,101137.19
2023-04-26T06:23:33.021Z,101137.84
2023-04-26T06:26:00.837Z,101134.16
2023-04-26T06:28:28.884Z,101139.09
2023-04-26T06:30:56.673Z,101146.63
2023-04-26T06:33:25.916Z,101145.47
2023-04-26T06:35:53.510Z,101151.31
2023-04-26T06:38:21.447Z,101154.19
2023-04-26T06:40:49.248Z,101149.41
2023-04-26T06:43:17.061Z,101147.19
2023-04-26T06:45:45.042Z,101144.19
2023-04-26T06:48:13.015Z,101139.34
2023-04-26T06:50:42.315Z,101130.16
2023-04-26T06:53:10.076Z,101134.75
2023-04-26T06:55:37.844Z,101130.88
2023-04-26T06:58:05.719Z,101125.31
2023-04-26T07:00:33.702Z,101122.50
2023-04-26T07:03:01.688Z,101126.72
2023-04-26T07:05:29.683Z,101135.16
2023-04-26T07:07:59.087Z,101130.91
2023-04-26T07:10:27.818Z,101130.19
2023-04-26T07:12:55.902Z,101138.09
2023-04-26T07:15:23.882Z,101137.19
2023-04-26T07:17:51.814Z,101126.69
2023-04-26T07:20:22.736Z,101130.56
2023-04-26T07:22:50.804Z,101127.53
2023-04-26T07:25:20.263Z,101126.03
2023-04-26T07:27:48.030Z,101129.00
2023-04-26T07:30:16.277Z,101129.59
2023-04-26T07:32:44.226Z,101127.47
2023-04-26T07:35:16.258Z,101121.91
2023-04-26T07:37:46.439Z,101122.81
2023-04-26T07:40:15.234Z,101120.97
2023-04-26T07:42:44.438Z,101118.63
2023-04-26T07:45:12.637Z,101125.69
2023-04-26T07:47:40.622Z,101128.47
2023-04-26T07:50:10.104Z,101119.91
2023-04-26T07:52:37.969Z,101125.44
2023-04-26T07:55:06.704Z,101129.03
2023-04-26T07:57:34.616Z,101125.34
2023-04-26T08:00:07.888Z,101120.22
2023-04-26T08:02:44.472Z,101120.13
2023-04-26T08:05:13.639Z,101129.97
2023-04-26T08:07:41.806Z,101122.63
2023-04-26T08:10:10.468Z,101119.06
2023-04-26T08:12:39.522Z,101125.22
2023-04-26T08:15:09.915Z,101121.03
2023-04-26T08:17:37.829Z,101115.06
2023-04-26T08:20:07.123Z,101126.38
2023-04-26T08:22:34.875Z,101119.13
2023-04-26T08:25:02.724Z,101117.50
2023-04-26T08:27:31.904Z,101116.78
2023-04-26T08:29:59.527Z,101111.38
2023-04-26T08:32:28.817Z,101116.84
2023-04-26T08:34:56.613Z,101115.66
2023-04-26T08:37:24.440Z,101113.22
2023-04-26T08:39:52.242Z,101124.66
2023-04-26T08:42:20.403Z,101125.44
2023-04-26T08:44:48.275Z,101127.44
2023-04-26T08:47:18.254Z,101124.81
2023-04-26T08:49:50.330Z,101124.06
2023-04-26T08:52:22.912Z,101128.50
2023-04-26T08:54:52.100Z,101125.94
2023-04-26T08:57:19.664Z,101122.25
2023-04-26T08:59:47.688Z,101121.59
2023-04-26T09:02:19.352Z,101130.88
2023-04-26T09:04:49.423Z,101127.91
2023-04-26T09:07:22.132Z,101120.78
2023-04-26T09:09:51.545Z,101121.75
2023-04-26T09:12:21.265Z,101118.38
2023-04-26T09:14:49.378Z,101125.16
2023-04-26T09:17:27.318Z,101121.66
2023-04-26T09:19:56.784Z,101123.63
2023-04-26T09:22:32.506Z,101123.59
2023-04-26T09:25:00.900Z,101122.66
2023-04-26T09:27:36.151Z,101133.25
2023-04-26T09:30:07.835Z,101123.47
2023-04-26T09:32:46.328Z,101121.47
2023-04-26T09:35:27.119Z,101124.75
2023-04-26T09:38:05.634Z,101129.31
2023-04-26T09:40:37.736Z,101120.63
2023-04-26T09:43:07.420Z,101108.19
2023-04-26T09:45:45.943Z,101107.63
2023-04-26T09:48:18.309Z,101103.91
2023-04-26T09:50:47.572Z,101091.41
2023-04-26T09:53:30.959Z,101092.78
2023-04-26T09:55:59.661Z,101085.25
2023-04-26T09:58:27.552Z,101091.41
2023-04-26T10:00:56.078Z,101093.31
2023-04-26T10:03:24.410Z,101090.34
2023-04-26T10:05:54.050Z,101092.47
2023-04-26T10:08:21.791Z,101105.66
2023-04-26T10:10:50.473Z,101102.41
2023-04-26T10:13:19.811Z,101102.03
2023-04-26T10:15:48.885Z,101096.34
2023-04-26T10:18:17.303Z,101101.66
2023-04-26T10:20:47.886Z,101095.72
2023-04-26T10:23:21.298Z,101098.75
2023-04-26T10:25:49.614Z,101088.94
2023-04-26T10:28:18.343Z,101093.16
2023-04-26T10:30:55.998Z,101095.38
2023-04-26T10:33:24.626Z,101096.34
2023-04-26T10:36:10.009Z,101094.13
2023-04-26T10:38:40.812Z,101089.13
2023-04-26T10:41:33.998Z,101093.53
2023-04-26T10:44:38.597Z,101091.06
2023-04-26T10:47:07.575Z,101085.44
2023-04-26T10:49:46.968Z,101091.47
2023-04-26T10:52:16.369Z,101091.34
2023-04-26T10:54:53.401Z,101081.34
2023-04-26T10:57:21.656Z,101082.66
2023-04-26T11:00:22.210Z,101083.25
2023-04-26T11:02:59.074Z,101083.13
2023-04-26T11:05:55.411Z,101084.63
2023-04-26T11:08:27.087Z,101074.41
2023-04-26T11:11:09.974Z,101074.34
2023-04-26T11:13:39.026Z,101081.19
2023-04-26T11:16:08.070Z,101081.56
2023-04-26T11:18:36.716Z,101083.56
2023-04-26T11:21:06.306Z,101073.00
2023-04-26T11:23:34.278Z,101080.09
2023-04-26T11:26:04.947Z,101082.16
2023-04-26T11:28:34.422Z,101077.75
2023-04-26T11:31:02.606Z,101076.59
2023-04-26T11:33:31.006Z,101062.75
2023-04-26T11:35:59.583Z,101066.41
2023-04-26T11:38:28.889Z,101059.25
2023-04-26T11:40:58.059Z,101062.91
2023-04-26T11:43:36.472Z,101059.06
2023-04-26T11:46:04.779Z,101055.56
2023-04-26T11:48:33.584Z,101060.06
2023-04-26T11:51:04.080Z,101057.50
2023-04-26T11:53:38.557Z,101058.75
2023-04-26T11:56:07.647Z,101055.81
2023-04-26T11:58:36.945Z,101051.50
2023-04-26T12:01:05.343Z,101058.84
2023-04-26T12:03:35.410Z,101052.50
2023-04-26T12:06:03.911Z,101055.94
2023-04-26T12:08:33.625Z,101056.88
2023-04-26T12:11:02.496Z,101060.66
2023-04-26T12:13:30.564Z,101058.25
2023-04-26T12:15:59.865Z,101051.44
2023-04-26T12:18:31.666Z,101048.06
2023-04-26T12:21:00.072Z,101053.44
2023-04-26T12:23:28.223Z,101058.72
2023-04-26T12:25:57.446Z,101050.72
2023-04-26T12:28:25.546Z,101054.69
2023-04-26T12:30:53.503Z,101051.78
2023-04-26T12:33:25.081Z,101046.38
2023-04-26T12:35:52.956Z,101054.50
2023-04-26T12:38:21.604Z,101045.94
2023-04-26T12:40:49.506Z,101044.53
2023-04-26T12:43:17.736Z,101044.16
2023-04-26T12:45:46.101Z,101048.09
2023-04-26T12:48:14.139Z,101043.03
2023-04-26T12:50:44.261Z,101052.53
2023-04-26T12:53:12.469Z,101042.94
2023-04-26T12:55:40.278Z,101043.78
2023-04-26T12:58:08.078Z,101046.56
2023-04-26T13:00:35.923Z,101056.34
2023-04-26T13:03:04.077Z,101050.81
2023-04-26T13:05:32.317Z,101053.09
2023-04-26T13:08:02.232Z,101053.25
2023-04-26T13:10:30.078Z,101054.69
2023-04-26T13:12:58.931Z,101053.00
2023-04-26T13:15:26.897Z,101067.31
2023-04-26T13:17:55.082Z,101065.03
2023-04-26T13:20:25.490Z,101058.03
2023-04-26T13:22:54.032Z,101058.72
2023-04-26T13:25:23.458Z,101054.94
2023-04-26T13:27:53.591Z,101054.84
2023-04-26T13:30:21.454Z,101056.03
2023-04-26T13:32:50.484Z,101053.41
2023-04-26T13:35:18.326Z,101049.25
2023-04-26T13:37:46.405Z,101048.66
2023-04-26T13:40:14.444Z,101036.91
2023-04-26T13:42:43.956Z,101042.56
2023-04-26T13:47:43.415Z,101031.97
2023-04-26T13:50:11.840Z,101046.63
2023-04-26T13:52:39.664Z,101039.53
2023-04-26T13:55:08.999Z,101044.59
2023-04-26T13:57:36.956Z,101045.78
2023-04-26T14:00:08.709Z,101047.00
2023-04-26T14:02:36.723Z,101040.06
2023-04-26T14:05:05.542Z,101046.47
2023-04-26T14:07:33.564Z,101052.28
2023-04-26T14:10:01.901Z,101039.13
2023-04-26T14:12:30.499Z,101048.13
2023-04-26T14:14:58.351Z,101057.81
2023-04-26T14:17:29.064Z,101055.66
2023-04-26T14:19:57.336Z,101044.69
2023-04-26T14:22:25.803Z,101047.31
2023-04-26T14:24:53.582Z,101048.66
2023-04-26T14:27:21.486Z,101056.34
2023-04-26T14:29:49.285Z,101053.03
2023-04-26T14:32:17.072Z,101051.72
2023-04-26T14:34:46.244Z,101048.84
2023-04-26T14:37:14.054Z,101052.13
2023-04-26T14:39:42.032Z,101052.13
2023-04-26T14:42:09.911Z,101042.38
2023-04-26T14:44:37.722Z,101042.44
2023-04-26T14:47:05.672Z,101035.09
2023-04-26T14:49:33.459Z,101031.53
2023-04-26T14:52:02.604Z,101027.31
2023-04-26T14:54:30.192Z,101031.81
2023-04-26T14:56:58.220Z,101039.16
2023-04-26T14:59:26.107Z,101034.88
2023-04-26T15:01:54.609Z,101028.91
2023-04-26T15:04:22.734Z,101039.50
2023-04-26T15:06:50.903Z,101036.53
2023-04-26T15:09:20.839Z,101033.91
2023-04-26T15:11:48.610Z,101042.91
2023-04-26T15:14:16.438Z,101032.88
2023-04-26T15:16:45.215Z,101030.41
2023-04-26T15:19:13.400Z,101030.81
2023-04-26T15:21:41.247Z,101036.84
2023-04-26T15:24:09.998Z,101033.25
2023-04-26T15:26:39.429Z,101031.28
2023-04-26T15:29:07.595Z,101034.66
2023-04-26T15:31:35.704Z,101037.75
2023-04-26T15:34:03.828Z,101030.88
2023-04-26T15:36:31.988Z,101033.19
2023-04-26T15:38:59.824Z,101033.34
2023-04-26T15:41:27.593Z,101031.50
2023-04-26T15:43:56.831Z,101026.13
2023-04-26T15:46:24.441Z,101039.16
2023-04-26T15:48:52.423Z,101038.41
2023-04-26T15:51:20.170Z,101038.09
2023-04-26T15:53:47.946Z,101033.88
2023-04-26T15:56:16.117Z,101036.63
2023-04-26T15:58:44.675Z,101034.16
2023-04-26T16:01:13.902Z,101035.44
2023-04-26T16:03:45.566Z,101035.63
2023-04-26T16:06:15.353Z,101041.59
2023-04-26T16:08:43.127Z,101040.66
2023-04-26T16:11:11.184Z,101039.72
2023-04-26T16:13:39.119Z,101044.03
2023-04-26T16:16:08.601Z,101041.59
2023-04-26T16:18:39.539Z,101037.41
2023-04-26T16:21:09.490Z,101034.56
2023-04-26T16:23:37.740Z,101035.22
2023-04-26T16:26:05.799Z,101035.16
2023-04-26T16:28:33.678Z,101034.03
2023-04-26T16:31:01.564Z,101033.19
2023-04-26T16:33:29.397Z,101032.59
2023-04-26T16:35:58.790Z,101024.28
2023-04-26T16:38:26.823Z,101037.44
2023-04-26T16:40:58.040Z,101026.84
2023-04-26T16:43:26.857Z,101025.78
2023-04-26T16:45:59.213Z,101033.66
2023-04-26T16:48:27.238Z,101029.72
2023-04-26T16:50:55.271Z,101030.16
2023-04-26T16:53:24.524Z,101031.19
2023-04-26T16:55:52.360Z,101039.91
2023-04-26T16:58:20.546Z,101036.50
2023-04-26T17:00:48.420Z,101039.31
2023-04-26T17:03:16.765Z,101036.06
2023-04-26T17:05:46.889Z,101043.22
2023-04-26T17:08:14.922Z,101046.88
2023-04-26T17:10:44.515Z,101053.28
2023-04-26T17:13:12.771Z,101047.38
2023-04-26T17:15:41.141Z,101055.44
2023-04-26T17:18:09.569Z,101058.13
2023-04-26T17:20:37.815Z,101047.00
2023-04-26T17:23:05.687Z,101050.50
2023-04-26T17:25:33.531Z,101044.38
2023-04-26T17:28:02.772Z,101048.03
2023-04-26T17:30:30.680Z,101037.06
2023-04-26T17:32:58.604Z,101041.91
2023-04-26T17:35:26.638Z,101050.84
2023-04-26T17:37:54.483Z,101043.97
2023-04-26T17:40:22.283Z,101044.16
2023-04-26T17:42:50.386Z,101048.00
2023-04-26T17:45:19.569Z,101049.19
2023-04-26T17:47:47.248Z,101053.47
2023-04-26T17:50:15.661Z,101049.88
2023-04-26T17:52:43.499Z,101051.88
2023-04-26T17:55:11.313Z,101060.72
2023-04-26T17:57:39.116Z,101054.84
2023-04-26T18:00:08.544Z,101061.19
2023-04-26T18:02:38.205Z,101069.09
2023-04-26T18:05:08.523Z,101067.50
2023-04-26T18:07:36.327Z,101072.03
2023-04-26T18:10:06.005Z,101065.22
2023-04-26T18:12:33.772Z,101071.38
2023-04-26T18:15:01.705Z,101074.00
2023-04-26T18:17:29.557Z,101076.69
2023-04-26T18:19:58.784Z,101087.28
2023-04-26T18:22:26.905Z,101082.56
2023-04-26T18:24:54.714Z,101083.38
2023-04-26T18:27:22.522Z,101085.28
2023-04-26T18:29:50.648Z,101084.56
2023-04-26T18:32:18.544Z,101093.47
2023-04-26T18:34:46.626Z,101093.66
2023-04-26T18:37:15.830Z,101089.47
2023-04-26T18:39:43.436Z,101092.53
2023-04-26T18:42:11.235Z,101094.31
2023-04-26T18:44:39.079Z,101095.41
2023-04-26T18:47:06.869Z,101092.22
2023-04-26T18:49:34.793Z,101101.06
2023-04-26T18:52:02.690Z,101091.84
2023-04-26T18:54:33.157Z,101098.19
2023-04-26T18:57:03.275Z,101092.41
2023-04-26T18:59:31.531Z,101090.97
2023-04-26T19:01:59.767Z,101097.19
2023-04-26T19:04:27.658Z,101096.47
2023-04-26T19:06:55.710Z,101104.31
2023-04-26T19:09:23.581Z,101098.34
2023-04-26T19:11:52.699Z,101104.50
2023-04-26T19:14:20.530Z,101106.38
2023-04-26T19:16:48.585Z,101111.63
2023-04-26T19:19:16.396Z,101106.50
2023-04-26T19:21:44.280Z,101116.84
2023-04-26T19:24:12.295Z,101112.47
2023-04-26T19:26:40.131Z,101114.97
2023-04-26T19:29:10.064Z,101120.13
2023-04-26T19:31:37.913Z,101117.47
2023-04-26T19:34:05.819Z,101120.94
2023-04-26T19:36:34.774Z,101112.44
2023-04-26T19:39:02.612Z,101115.97
2023-04-26T19:41:30.438Z,101121.13
2023-04-26T19:43:58.264Z,101124.63
2023-04-26T19:46:27.574Z,101122.94
2023-04-26T19:48:55.229Z,101130.13
2023-04-26T19:51:23.033Z,101129.94
2023-04-26T19:53:50.984Z,101129.94
2023-04-26T19:56:18.832Z,101140.31
2023-04-26T19:58:47.267Z,101136.03
2023-04-26T20:01:15.143Z,101137.88
2023-04-26T20:03:44.443Z,101140.56
2023-04-26T20:06:14.069Z,101144.97
2023-04-26T20:08:41.931Z,101147.91
2023-04-26T20:11:14.733Z,101149.50
2023-04-26T20:13:42.906Z,101146.09
2023-04-26T20:16:11.385Z,101156.56
2023-04-26T20:18:39.399Z,101156.66
2023-04-26T20:21:08.596Z,101156.66
2023-04-26T20:23:36.520Z,101163.59
2023-04-26T20:26:04.357Z,101160.97
2023-04-26T20:28:32.256Z,101162.72
2023-04-26T20:31:00.124Z,101168.69
2023-04-26T20:33:28.080Z,101158.34
2023-04-26T20:35:58.100Z,101159.16
2023-04-26T20:38:27.331Z,101156.56
2023-04-26T20:40:54.990Z,101161.19
2023-04-26T20:43:22.793Z,101167.19
2023-04-26T20:45:51.692Z,101161.28
2023-04-26T20:48:19.528Z,101158.78
2023-04-26T20:50:47.350Z,101157.16
2023-04-26T20:53:15.155Z,101157.31
2023-04-26T20:55:44.323Z,101154.91
2023-04-26T20:58:12.192Z,101156.78
2023-04-26T21:00:40.351Z,101157.00
2023-04-26T21:03:08.506Z,101161.53
2023-04-26T21:05:36.880Z,101158.28
2023-04-26T21:08:04.716Z,101162.00
2023-04-26T21:10:32.496Z,101160.53
2023-04-26T21:13:01.730Z,101161.50
2023-04-26T21:15:29.386Z,101160.91
2023-04-26T21:17:57.259Z,101160.78
2023-04-26T21:20:25.118Z,101166.03
2023-04-26T21:22:52.919Z,101160.09
2023-04-26T21:25:20.739Z,101165.28
2023-04-26T21:27:48.797Z,101172.25
2023-04-26T21:30:18.242Z,101160.25
2023-04-26T21:32:46.029Z,101167.28
2023-04-26T21:35:13.850Z,101168.25
2023-04-26T21:37:41.593Z,101171.88
2023-04-26T21:40:12.463Z,101167.78
2023-04-26T21:42:40.709Z,101176.63
2023-04-26T21:45:10.195Z,101175.91
2023-04-26T21:47:39.369Z,101179.38
2023-04-26T21:50:07.915Z,101180.22
2023-04-26T21:52:35.728Z,101175.91
2023-04-26T21:55:03.860Z,101179.38
2023-04-26T21:57:31.678Z,101174.22
2023-04-26T21:59:59.486Z,101177.75
2023-04-26T22:02:27.478Z,101176.16
2023-04-26T22:04:56.909Z,101178.84
2023-04-26T22:07:24.460Z,101179.09
2023-04-26T22:09:52.268Z,101185.91
2023-04-26T22:12:20.054Z,101184.25
2023-04-26T22:14:47.794Z,101184.28
2023-04-26T22:17:15.531Z,101181.69
2023-04-26T22:19:43.262Z,101180.00
2023-04-26T22:22:12.431Z,101193.78
2023-04-26T22:24:40.240Z,101180.94
2023-04-26T22:27:07.958Z,101190.44
2023-04-26T22:29:35.783Z,101189.56
2023-04-26T22:32:03.612Z,101183.59
2023-04-26T22:34:31.434Z,101189.69
2023-04-26T22:37:06.244Z,101189.75
2023-04-26T22:39:42.636Z,101200.97
2023-04-26T22:42:10.392Z,101196.81
2023-04-26T22:44:38.183Z,101194.34
2023-04-26T22:47:06.293Z,101197.09
2023-04-26T22:49:34.099Z,101206.91
2023-04-26T22:52:07.894Z,101200.50
2023-04-26T22:54:39.738Z,101197.53
2023-04-26T22:57:08.856Z,101208.16
2023-04-26T22:59:36.661Z,101209.31
2023-04-26T23:02:07.380Z,101207.84
2023-04-26T23:04:35.169Z,101208.03
2023-04-26T23:07:03.127Z,101203.94
2023-04-26T23:09:31.064Z,101212.66
2023-04-26T23:11:59.747Z,101215.34
2023-04-26T23:14:29.662Z,101209.41
2023-04-26T23:16:58.609Z,101209.38
2023-04-26T23:19:26.424Z,101216.19
2023-04-26T23:21:54.239Z,101212.72
2023-04-26T23:24:22.084Z,101213.59
2023-04-26T23:26:49.907Z,101211.91
2023-04-26T23:29:17.695Z,101219.69
2023-04-26T23:31:46.807Z,101218.88
2023-04-26T23:34:14.602Z,101218.84
2023-04-26T23:36:45.077Z,101223.06
2023-04-26T23:39:13.014Z,101223.91
2023-04-26T23:41:40.960Z,101228.22
2023-04-26T23:44:08.746Z,101225.59
2023-04-26T23:46:36.592Z,101229.09
2023-04-26T23:49:05.828Z,101221.41
2023-04-26T23:51:33.615Z,101216.38
2023-04-26T23:54:01.545Z,101226.75
2023-04-26T23:56:29.338Z,101222.59
2023-04-26T23:58:58.328Z,101228.69
